createdAt,value
2019-05-17T00:00:57.153Z,14.68
2019-05-17T00:03:27.021Z,16.70
2019-05-17T00:05:58.135Z,15.15
2019-05-17T00:08:34.404Z,16.42
2019-05-17T00:11:01.076Z,16.50
2019-05-17T00:13:31.846Z,15.70
2019-05-17T00:16:02.791Z,15.48
2019-05-17T00:18:33.644Z,16.45
2019-05-17T00:21:04.502Z,17.20
2019-05-17T00:23:37.452Z,16.45
2019-05-17T00:26:07.549Z,17.10
2019-05-17T00:28:38.613Z,17.40
2019-05-17T00:31:09.588Z,16.73
2019-05-17T00:33:40.548Z,17.10
2019-05-17T00:36:11.505Z,16.82
2019-05-17T00:38:48.310Z,16.85
2019-05-17T00:41:17.478Z,17.62
2019-05-17T00:43:47.345Z,17.85
2019-05-17T00:46:18.406Z,18.65
2019-05-17T00:48:49.365Z,17.92
2019-05-17T00:51:20.219Z,18.57
2019-05-17T00:53:51.280Z,17.80
2019-05-17T00:56:22.241Z,19.25
2019-05-17T00:58:53.299Z,18.37
2019-05-17T01:01:26.902Z,18.07
2019-05-17T01:03:57.230Z,18.40
2019-05-17T01:06:28.323Z,18.30
2019-05-17T01:09:01.893Z,17.90
2019-05-17T01:11:33.104Z,18.60
2019-05-17T01:14:06.823Z,19.60
2019-05-17T01:16:37.357Z,18.75
2019-05-17T01:19:08.435Z,20.25
2019-05-17T01:21:39.392Z,18.77
2019-05-17T01:24:10.230Z,18.67
2019-05-17T01:26:41.190Z,19.87
2019-05-17T01:29:12.146Z,19.35
2019-05-17T01:31:43.207Z,18.80
2019-05-17T01:34:16.472Z,21.15
2019-05-17T01:36:46.630Z,18.87
2019-05-17T01:39:21.335Z,19.48
2019-05-17T01:41:50.314Z,19.30
2019-05-17T01:44:21.493Z,19.62
2019-05-17T01:46:52.452Z,20.08
2019-05-17T01:49:23.514Z,19.07
2019-05-17T01:51:56.662Z,19.77
2019-05-17T01:54:27.005Z,20.52
2019-05-17T01:56:57.921Z,19.98
2019-05-17T01:59:28.760Z,21.42
2019-05-17T02:02:01.372Z,20.45
2019-05-17T02:04:32.333Z,18.98
2019-05-17T02:07:03.273Z,18.90
2019-05-17T02:09:38.603Z,20.15
2019-05-17T02:12:07.457Z,19.77
2019-05-17T02:14:38.499Z,17.60
2019-05-17T02:17:09.459Z,19.25
2019-05-17T02:19:40.438Z,19.17
2019-05-17T02:22:11.290Z,19.23
2019-05-17T02:24:42.358Z,18.82
2019-05-17T02:27:13.495Z,19.02
2019-05-17T02:29:44.557Z,19.55
2019-05-17T02:32:15.740Z,17.85
2019-05-17T02:34:46.799Z,18.67
2019-05-17T02:37:17.636Z,18.75
2019-05-17T02:39:58.296Z,17.23
2019-05-17T02:42:22.436Z,17.52
2019-05-17T02:44:53.294Z,15.05
2019-05-17T02:47:24.130Z,16.00
2019-05-17T02:49:55.189Z,15.98
2019-05-17T02:52:26.169Z,15.43
2019-05-17T02:54:57.230Z,15.83
2019-05-17T02:57:28.200Z,16.02
2019-05-17T02:59:59.231Z,17.50
2019-05-17T03:02:33.835Z,17.48
2019-05-17T03:05:04.102Z,17.85
2019-05-17T03:07:35.088Z,15.45
2019-05-17T03:10:18.113Z,15.78
2019-05-17T03:12:39.562Z,14.35
2019-05-17T03:15:12.844Z,15.58
2019-05-17T03:17:43.975Z,14.25
2019-05-17T03:20:15.393Z,14.18
2019-05-17T03:22:45.934Z,14.50
2019-05-17T03:25:17.014Z,13.50
2019-05-17T03:27:47.876Z,13.85
2019-05-17T03:30:25.343Z,14.50
2019-05-17T03:32:56.239Z,14.10
2019-05-17T03:35:26.901Z,15.18
2019-05-17T03:37:57.410Z,14.50
2019-05-17T03:40:56.542Z,15.48
2019-05-17T03:43:02.862Z,15.63
2019-05-17T03:45:34.145Z,16.02
2019-05-17T03:48:05.363Z,15.83
2019-05-17T03:50:36.198Z,15.40
2019-05-17T03:53:06.859Z,15.45
2019-05-17T03:55:37.923Z,15.80
2019-05-17T03:58:08.880Z,16.82
2019-05-17T04:00:42.583Z,15.68
2019-05-17T04:03:13.598Z,16.45
2019-05-17T04:05:44.617Z,16.40
2019-05-17T04:08:15.482Z,16.50
2019-05-17T04:10:46.533Z,17.73
2019-05-17T04:13:17.493Z,15.85
2019-05-17T04:15:48.554Z,16.12
2019-05-17T04:18:19.391Z,15.35
2019-05-17T04:20:52.847Z,15.68
2019-05-17T04:23:23.431Z,17.00
2019-05-17T04:25:54.318Z,15.23
2019-05-17T04:28:25.187Z,15.75
2019-05-17T04:30:56.052Z,16.82
2019-05-17T04:33:26.984Z,16.05
2019-05-17T04:35:57.960Z,14.65
2019-05-17T04:38:28.695Z,14.55
2019-05-17T04:41:02.847Z,14.85
2019-05-17T04:43:33.321Z,15.70
2019-05-17T04:46:04.334Z,15.93
2019-05-17T04:48:35.419Z,14.35
2019-05-17T04:51:06.370Z,15.20
2019-05-17T04:53:37.116Z,15.05
2019-05-17T04:56:08.185Z,13.78
2019-05-17T04:58:39.147Z,15.03
2019-05-17T05:01:12.972Z,14.83
2019-05-17T05:03:42.989Z,14.28
2019-05-17T05:06:14.066Z,14.83
2019-05-17T05:08:45.489Z,14.38
2019-05-17T05:11:16.391Z,14.73
2019-05-17T05:13:47.346Z,15.00
2019-05-17T05:16:18.391Z,13.88
2019-05-17T05:18:51.911Z,14.15
2019-05-17T05:21:22.995Z,13.62
2019-05-17T05:23:54.044Z,13.93
2019-05-17T05:26:24.983Z,13.05
2019-05-17T05:28:55.876Z,13.88
2019-05-17T05:31:26.928Z,13.25
2019-05-17T05:33:57.979Z,14.15
2019-05-17T05:36:32.797Z,15.40
2019-05-17T05:39:05.113Z,14.95
2019-05-17T05:41:36.173Z,13.32
2019-05-17T05:44:07.031Z,14.43
2019-05-17T05:46:38.065Z,13.60
2019-05-17T05:49:09.216Z,13.62
2019-05-17T05:51:42.289Z,13.93
2019-05-17T05:54:12.567Z,13.40
2019-05-17T05:56:43.563Z,13.65
2019-05-17T05:59:14.620Z,12.95
2019-05-17T06:01:45.585Z,13.43
2019-05-17T06:04:16.717Z,14.20
2019-05-17T06:06:47.393Z,13.78
2019-05-17T06:09:18.364Z,12.28
2019-05-17T06:11:51.819Z,13.60
2019-05-17T06:14:22.706Z,13.13
2019-05-17T06:16:53.973Z,14.45
2019-05-17T06:19:25.054Z,13.10
2019-05-17T06:21:56.120Z,13.18
2019-05-17T06:24:27.070Z,13.58
2019-05-17T06:26:57.701Z,13.25
2019-05-17T06:29:28.558Z,13.32
2019-05-17T06:31:59.431Z,13.13
2019-05-17T06:34:32.704Z,12.63
2019-05-17T06:37:02.869Z,13.35
2019-05-17T06:39:33.826Z,13.00
2019-05-17T06:42:04.809Z,12.30
2019-05-17T06:44:35.639Z,12.15
2019-05-17T06:47:06.700Z,12.95
2019-05-17T06:49:37.553Z,12.45
2019-05-17T06:52:08.428Z,12.47
2019-05-17T06:54:41.581Z,12.70
2019-05-17T06:57:12.894Z,12.07
2019-05-17T06:59:43.848Z,12.20
2019-05-17T07:02:14.921Z,12.63
2019-05-17T07:04:45.758Z,11.75
2019-05-17T07:07:24.085Z,11.43
2019-05-17T07:09:56.413Z,12.03
2019-05-17T07:12:30.474Z,11.40
2019-05-17T07:15:02.910Z,12.03
2019-05-17T07:17:34.073Z,12.33
2019-05-17T07:20:05.308Z,12.13
2019-05-17T07:22:35.985Z,11.83
2019-05-17T07:25:10.759Z,12.10
2019-05-17T07:27:45.440Z,12.15
2019-05-17T07:30:13.979Z,12.13
2019-05-17T07:32:44.524Z,12.50
2019-05-17T07:35:15.260Z,11.70
2019-05-17T07:37:46.345Z,12.20
2019-05-17T07:40:19.690Z,12.10
2019-05-17T07:42:50.213Z,12.28
2019-05-17T07:45:21.156Z,12.55
2019-05-17T07:47:52.218Z,11.40
2019-05-17T07:50:24.814Z,10.90
2019-05-17T07:52:55.652Z,12.15
2019-05-17T07:55:26.612Z,10.80
2019-05-17T07:58:10.039Z,11.63
2019-05-17T08:00:40.824Z,11.45
2019-05-17T08:03:13.314Z,11.50
2019-05-17T08:05:44.369Z,11.75
2019-05-17T08:08:15.023Z,11.28
2019-05-17T08:10:45.981Z,11.40
2019-05-17T08:13:27.269Z,10.85
2019-05-17T08:15:50.156Z,10.80
2019-05-17T08:18:21.311Z,10.32
2019-05-17T08:20:52.170Z,10.90
2019-05-17T08:23:23.106Z,10.45
2019-05-17T08:26:07.475Z,11.35
2019-05-17T08:28:50.582Z,10.45
2019-05-17T08:31:21.672Z,10.45
2019-05-17T08:33:52.630Z,10.00
2019-05-17T08:36:23.492Z,13.75
2019-05-17T08:38:54.547Z,10.78
2019-05-17T08:41:25.405Z,9.78
2019-05-17T08:43:56.554Z,11.90
2019-05-17T08:46:35.338Z,11.20
2019-05-17T08:49:09.601Z,10.43
2019-05-17T08:51:39.910Z,10.70
2019-05-17T08:54:11.735Z,10.03
2019-05-17T08:56:55.826Z,10.30
2019-05-17T08:59:29.695Z,10.23
2019-05-17T09:02:00.569Z,10.85
2019-05-17T09:04:31.422Z,10.30
2019-05-17T09:07:03.221Z,9.65
2019-05-17T09:09:34.059Z,10.25
2019-05-17T09:12:06.365Z,9.85
2019-05-17T09:17:30.776Z,9.75
2019-05-17T09:20:02.503Z,9.80
2019-05-17T09:22:39.392Z,8.60
2019-05-17T09:25:17.106Z,8.13
2019-05-17T09:27:45.962Z,8.68
2019-05-17T09:30:25.455Z,8.50
2019-05-17T09:33:00.342Z,9.33
2019-05-17T09:35:30.835Z,8.65
2019-05-17T09:38:09.816Z,8.15
2019-05-17T09:40:40.270Z,8.68
2019-05-17T09:43:11.148Z,8.50
2019-05-17T09:45:50.816Z,7.28
2019-05-17T09:48:39.640Z,7.37
2019-05-17T09:51:10.661Z,7.95
2019-05-17T09:53:41.695Z,8.63
2019-05-17T09:56:25.757Z,8.90
2019-05-17T09:59:05.855Z,8.78
2019-05-17T10:01:39.453Z,8.05
2019-05-17T10:04:16.092Z,7.92
2019-05-17T10:06:56.150Z,9.05
2019-05-17T10:09:27.721Z,9.10
2019-05-17T10:12:00.032Z,8.30
2019-05-17T10:14:31.342Z,8.70
2019-05-17T10:17:02.139Z,7.42
2019-05-17T10:19:36.464Z,8.00
2019-05-17T10:22:10.340Z,8.43
2019-05-17T10:24:42.427Z,8.15
2019-05-17T10:27:14.649Z,7.78
2019-05-17T10:29:45.721Z,7.83
2019-05-17T10:32:16.558Z,7.58
2019-05-17T10:34:49.520Z,7.97
2019-05-17T10:37:20.423Z,7.95
2019-05-17T10:39:51.378Z,8.10
2019-05-17T10:42:22.452Z,6.60
2019-05-17T10:44:54.764Z,7.40
2019-05-17T10:47:25.582Z,7.20
2019-05-17T10:49:56.342Z,7.50
2019-05-17T10:52:29.732Z,7.47
2019-05-17T10:54:59.808Z,6.97
2019-05-17T10:57:31.069Z,7.28
2019-05-17T11:00:01.914Z,7.53
2019-05-17T11:02:32.987Z,6.30
2019-05-17T11:05:04.766Z,6.30
2019-05-17T11:07:35.419Z,7.28
2019-05-17T11:10:11.236Z,7.05
2019-05-17T11:12:40.398Z,7.42
2019-05-17T11:15:12.268Z,6.90
2019-05-17T11:17:43.318Z,7.15
2019-05-17T11:20:14.740Z,7.60
2019-05-17T11:22:45.238Z,7.05
2019-05-17T11:25:16.299Z,6.47
2019-05-17T11:28:18.031Z,6.10
2019-05-17T11:30:59.177Z,7.75
2019-05-17T11:33:31.228Z,6.17
2019-05-17T11:36:02.333Z,6.05
2019-05-17T11:38:33.620Z,6.33
2019-05-17T11:41:21.190Z,6.37
2019-05-17T11:44:05.927Z,6.17
2019-05-17T11:46:36.852Z,6.67
2019-05-17T11:49:07.966Z,5.85
2019-05-17T11:51:39.244Z,6.28
2019-05-17T11:54:16.343Z,6.33
2019-05-17T11:56:47.490Z,6.00
2019-05-17T11:59:19.981Z,6.00
2019-05-17T12:01:56.905Z,6.12
2019-05-17T12:04:30.254Z,5.85
2019-05-17T12:07:00.839Z,6.45
2019-05-17T12:09:37.358Z,5.75
2019-05-17T12:12:03.964Z,6.12
2019-05-17T12:14:34.731Z,6.22
2019-05-17T12:17:05.679Z,5.78
2019-05-17T12:19:37.364Z,6.00
2019-05-17T12:22:08.427Z,5.92
2019-05-17T12:24:39.167Z,7.22
2019-05-17T12:27:10.244Z,6.50
2019-05-17T12:29:41.207Z,5.97
2019-05-17T12:32:16.847Z,6.92
2019-05-17T12:34:44.855Z,6.55
2019-05-17T12:37:15.915Z,6.42
2019-05-17T12:39:46.874Z,6.58
2019-05-17T12:42:17.712Z,6.60
2019-05-17T12:44:48.792Z,6.58
2019-05-17T12:47:19.770Z,6.00
2019-05-17T12:49:50.813Z,7.08
2019-05-17T12:52:21.658Z,7.37
2019-05-17T12:54:59.188Z,6.58
2019-05-17T12:57:29.702Z,7.03
2019-05-17T13:00:00.681Z,6.65
2019-05-17T13:02:31.599Z,7.03
2019-05-17T13:05:02.075Z,6.83
2019-05-17T13:07:32.619Z,7.15
2019-05-17T13:10:05.051Z,7.87
2019-05-17T13:12:35.674Z,6.50
2019-05-17T13:15:07.637Z,6.53
2019-05-17T13:17:38.236Z,7.33
2019-05-17T13:20:09.970Z,7.55
2019-05-17T13:22:40.526Z,7.08
2019-05-17T13:25:12.291Z,7.35
2019-05-17T13:27:42.960Z,7.20
2019-05-17T13:30:14.207Z,6.90
2019-05-17T13:32:45.290Z,7.62
2019-05-17T13:35:17.277Z,7.70
2019-05-17T13:37:47.919Z,7.90
2019-05-17T13:40:18.777Z,7.62
2019-05-17T13:42:49.938Z,7.37
2019-05-17T13:45:21.009Z,6.78
2019-05-17T13:47:51.956Z,7.12
2019-05-17T13:50:23.064Z,7.65
2019-05-17T13:52:54.064Z,7.35
2019-05-17T13:55:25.037Z,7.92
2019-05-17T13:57:55.897Z,6.85
2019-05-17T14:00:26.955Z,7.87
2019-05-17T14:02:57.911Z,8.15
2019-05-17T14:05:28.972Z,7.35
2019-05-17T14:07:59.931Z,7.15
2019-05-17T14:10:32.215Z,6.65
2019-05-17T14:13:03.072Z,7.20
2019-05-17T14:15:34.018Z,7.75
2019-05-17T14:18:04.994Z,7.87
2019-05-17T14:20:36.051Z,7.78
2019-05-17T14:23:06.890Z,6.97
2019-05-17T14:25:38.546Z,6.47
2019-05-17T14:28:11.416Z,7.37
2019-05-17T14:30:42.239Z,7.53
2019-05-17T14:33:13.077Z,7.37
2019-05-17T14:35:44.159Z,7.30
2019-05-17T14:38:15.219Z,7.40
2019-05-17T14:41:05.458Z,7.87
2019-05-17T14:43:19.282Z,7.95
2019-05-17T14:45:50.342Z,6.95
2019-05-17T14:48:21.307Z,7.37
2019-05-17T14:50:52.238Z,7.00
2019-05-17T14:53:23.094Z,7.33
2019-05-17T14:55:53.959Z,7.75
2019-05-17T14:58:24.910Z,7.72
2019-05-17T15:00:55.777Z,7.65
2019-05-17T15:03:26.623Z,8.83
2019-05-17T15:05:57.701Z,7.72
2019-05-17T15:08:28.763Z,7.80
2019-05-17T15:10:59.825Z,8.10
2019-05-17T15:13:30.785Z,7.55
2019-05-17T15:16:01.723Z,8.05
2019-05-17T15:18:32.809Z,9.08
2019-05-17T15:21:03.760Z,8.03
2019-05-17T15:23:34.819Z,8.03
2019-05-17T15:26:05.775Z,8.25
2019-05-17T15:28:36.822Z,7.67
2019-05-17T15:31:07.823Z,7.50
2019-05-17T15:33:38.755Z,8.23
2019-05-17T15:36:09.697Z,7.55
2019-05-17T15:38:40.655Z,8.68
2019-05-17T15:41:11.731Z,7.97
2019-05-17T15:43:42.676Z,8.33
2019-05-17T15:46:13.426Z,7.37
2019-05-17T15:48:44.506Z,7.90
2019-05-17T15:51:15.468Z,7.45
2019-05-17T15:53:46.406Z,7.58
2019-05-17T15:56:17.362Z,6.83
2019-05-17T15:58:48.238Z,7.28
2019-05-17T16:01:19.176Z,7.70
2019-05-17T16:03:50.151Z,7.67
2019-05-17T16:06:21.226Z,8.05
2019-05-17T16:08:52.153Z,7.60
2019-05-17T16:11:23.011Z,8.50
2019-05-17T16:13:54.070Z,7.85
2019-05-17T16:16:24.928Z,7.83
2019-05-17T16:18:56.013Z,8.63
2019-05-17T16:21:26.855Z,8.13
2019-05-17T16:23:57.719Z,8.48
2019-05-17T16:26:28.659Z,9.00
2019-05-17T16:28:59.634Z,8.50
2019-05-17T16:31:30.491Z,8.70
2019-05-17T16:34:01.550Z,8.55
2019-05-17T16:36:32.398Z,8.65
2019-05-17T16:39:08.219Z,8.98
2019-05-17T16:41:37.302Z,8.53
2019-05-17T16:44:08.333Z,7.70
2019-05-17T16:46:39.109Z,8.65
2019-05-17T16:49:10.045Z,8.05
2019-05-17T16:51:40.805Z,8.10
2019-05-17T16:54:11.876Z,8.43
2019-05-17T16:56:42.429Z,7.90
2019-05-17T16:59:13.385Z,8.58
2019-05-17T17:01:44.452Z,8.33
2019-05-17T17:04:15.389Z,8.13
2019-05-17T17:06:46.243Z,8.15
2019-05-17T17:09:17.434Z,7.75
2019-05-17T17:11:47.971Z,8.33
2019-05-17T17:14:18.931Z,8.63
2019-05-17T17:16:49.887Z,8.33
2019-05-17T17:19:20.543Z,8.63
2019-05-17T17:21:51.603Z,8.33
2019-05-17T17:24:22.765Z,8.33
2019-05-17T17:26:53.637Z,8.58
2019-05-17T17:29:24.889Z,8.40
2019-05-17T17:31:55.540Z,7.95
2019-05-17T17:34:26.192Z,9.35
2019-05-17T17:36:57.133Z,10.93
2019-05-17T17:39:28.112Z,13.48
2019-05-17T17:41:58.842Z,12.88
2019-05-17T17:44:29.906Z,13.10
2019-05-17T17:47:00.915Z,11.75
2019-05-17T17:49:32.147Z,9.28
2019-05-17T17:52:02.984Z,9.70
2019-05-17T17:54:34.044Z,8.33
2019-05-17T17:57:05.265Z,7.65
2019-05-17T17:59:36.493Z,8.68
2019-05-17T18:02:07.331Z,8.65
2019-05-17T18:04:38.215Z,9.78
2019-05-17T18:07:09.250Z,9.55
2019-05-17T18:09:40.438Z,17.48
2019-05-17T18:12:11.084Z,13.68
2019-05-17T18:14:42.017Z,9.15
2019-05-17T18:17:12.878Z,9.23
2019-05-17T18:19:43.954Z,7.47
2019-05-17T18:22:15.834Z,8.05
2019-05-17T18:24:46.894Z,8.23
2019-05-17T18:27:17.955Z,8.03
2019-05-17T18:29:48.996Z,8.10
2019-05-17T18:32:19.955Z,7.72
2019-05-17T18:34:51.035Z,7.22
2019-05-17T18:37:24.666Z,8.05
2019-05-17T18:39:55.690Z,8.10
2019-05-17T18:42:26.364Z,7.92
2019-05-17T18:44:57.422Z,7.80
2019-05-17T18:47:28.487Z,7.55
2019-05-17T18:49:59.547Z,7.92
2019-05-17T18:52:30.400Z,8.15
2019-05-17T18:55:01.462Z,7.70
2019-05-17T18:57:32.426Z,7.40
2019-05-17T19:00:03.566Z,8.28
2019-05-17T19:02:34.130Z,6.95
2019-05-17T19:05:07.498Z,7.65
2019-05-17T19:07:38.095Z,7.67
2019-05-17T19:10:09.300Z,7.42
2019-05-17T19:12:39.964Z,8.00
2019-05-17T19:15:11.580Z,8.00
2019-05-17T19:17:42.234Z,8.20
2019-05-17T19:20:14.216Z,8.20
2019-05-17T19:22:45.929Z,7.37
2019-05-17T19:25:17.774Z,8.15
2019-05-17T19:27:48.300Z,7.65
2019-05-17T19:30:19.483Z,7.65
2019-05-17T19:32:50.537Z,7.45
2019-05-17T19:35:21.603Z,7.85
2019-05-17T19:37:54.380Z,8.25
2019-05-17T19:40:25.047Z,7.80
2019-05-17T19:42:56.113Z,8.13
2019-05-17T19:45:27.072Z,7.47
2019-05-17T19:47:57.910Z,8.70
2019-05-17T19:50:28.995Z,8.28
2019-05-17T19:52:59.952Z,8.30
2019-05-17T19:55:33.339Z,8.18
2019-05-17T19:58:07.497Z,8.35
2019-05-17T20:00:38.435Z,7.45
2019-05-17T20:03:09.407Z,7.37
2019-05-17T20:05:40.468Z,7.80
2019-05-17T20:08:11.325Z,8.00
2019-05-17T20:10:42.679Z,6.58
2019-05-17T20:13:13.239Z,7.65
2019-05-17T20:15:44.076Z,6.50
2019-05-17T20:18:15.043Z,7.47
2019-05-17T20:20:45.993Z,7.50
2019-05-17T20:23:17.995Z,7.47
2019-05-17T20:25:49.137Z,7.12
2019-05-17T20:28:20.119Z,7.37
2019-05-17T20:30:51.175Z,7.50
2019-05-17T20:33:22.137Z,7.37
2019-05-17T20:35:52.980Z,7.37
2019-05-17T20:38:24.051Z,6.75
2019-05-17T20:40:54.996Z,7.50
2019-05-17T20:43:26.060Z,7.15
2019-05-17T20:45:57.029Z,7.30
2019-05-17T20:48:27.869Z,7.72
2019-05-17T20:50:58.944Z,8.20
2019-05-17T20:53:29.792Z,7.25
2019-05-17T20:56:00.777Z,7.08
2019-05-17T20:58:31.867Z,7.10
2019-05-17T21:01:02.780Z,8.13
2019-05-17T21:03:33.838Z,7.03
2019-05-17T21:06:05.090Z,7.30
2019-05-17T21:08:45.662Z,7.30
2019-05-17T21:11:08.458Z,7.33
2019-05-17T21:13:39.327Z,7.10
2019-05-17T21:16:10.066Z,7.55
2019-05-17T21:18:41.025Z,7.58
2019-05-17T21:21:11.863Z,7.12
2019-05-17T21:23:43.961Z,7.28
2019-05-17T21:26:15.007Z,7.62
2019-05-17T21:28:47.275Z,7.22
2019-05-17T21:31:18.273Z,7.62
2019-05-17T21:33:49.233Z,7.87
2019-05-17T21:36:20.081Z,7.05
2019-05-17T21:38:51.145Z,6.70
2019-05-17T21:41:22.108Z,7.97
2019-05-17T21:43:53.166Z,6.92
2019-05-17T21:46:24.124Z,7.08
2019-05-17T21:48:54.980Z,7.10
2019-05-17T21:51:26.037Z,7.00
2019-05-17T21:53:57.098Z,7.08
2019-05-17T21:56:28.157Z,7.25
2019-05-17T21:58:58.997Z,6.75
2019-05-17T22:01:32.838Z,6.58
2019-05-17T22:04:03.999Z,7.05
2019-05-17T22:06:34.635Z,7.58
2019-05-17T22:09:07.731Z,7.15
2019-05-17T22:11:40.235Z,8.18
2019-05-17T22:14:11.213Z,7.30
2019-05-17T22:16:42.252Z,7.47
2019-05-17T22:19:13.230Z,7.10
2019-05-17T22:21:44.066Z,6.37
2019-05-17T22:24:16.169Z,7.33
2019-05-17T22:26:47.386Z,6.37
2019-05-17T22:29:18.270Z,6.28
2019-05-17T22:31:49.352Z,7.00
2019-05-17T22:34:20.198Z,7.33
2019-05-17T22:36:51.040Z,6.97
2019-05-17T22:39:22.120Z,6.97
2019-05-17T22:41:53.063Z,6.28
2019-05-17T22:44:23.925Z,7.42
2019-05-17T22:46:55.001Z,5.85
2019-05-17T22:49:25.960Z,6.53
2019-05-17T22:51:56.924Z,6.15
2019-05-17T22:54:27.972Z,6.70
2019-05-17T22:56:58.917Z,6.20
2019-05-17T22:59:29.890Z,6.58
2019-05-17T23:02:00.953Z,5.92
2019-05-17T23:04:31.791Z,6.25
2019-05-17T23:07:02.648Z,6.75
2019-05-17T23:09:33.724Z,6.22
2019-05-17T23:12:04.685Z,6.40
2019-05-17T23:14:35.545Z,6.45
2019-05-17T23:17:06.603Z,5.97
2019-05-17T23:19:37.561Z,6.50
2019-05-17T23:22:08.617Z,6.80
2019-05-17T23:24:40.498Z,6.33
2019-05-17T23:27:11.765Z,6.42
2019-05-17T23:29:42.620Z,6.85
2019-05-17T23:32:13.683Z,6.42
2019-05-17T23:34:44.636Z,6.80
2019-05-17T23:37:15.699Z,6.22
2019-05-17T23:39:46.965Z,6.33
2019-05-17T23:42:18.008Z,6.08
2019-05-17T23:44:49.479Z,6.50
2019-05-17T23:47:20.554Z,5.92
2019-05-17T23:49:51.512Z,5.92
2019-05-17T23:52:22.417Z,6.05
2019-05-17T23:54:53.534Z,6.12
2019-05-17T23:57:24.472Z,6.50
2019-05-17T23:59:55.552Z,6.17
